createdAt,value
2023-03-12T00:01:33.511Z,2.65
2023-03-12T00:04:05.207Z,2.62
2023-03-12T00:06:34.778Z,2.56
2023-03-12T00:09:06.373Z,2.58
2023-03-12T00:11:35.972Z,2.57
2023-03-12T00:14:05.393Z,2.58
2023-03-12T00:16:34.897Z,2.59
2023-03-12T00:19:04.389Z,2.53
2023-03-12T00:21:33.855Z,2.45
2023-03-12T00:24:04.755Z,2.48
2023-03-12T00:26:34.212Z,2.48
2023-03-12T00:29:03.596Z,2.51
2023-03-12T00:31:35.077Z,2.47
2023-03-12T00:34:05.417Z,2.46
2023-03-12T00:36:35.495Z,2.46
2023-03-12T00:39:06.517Z,2.49
2023-03-12T00:41:35.983Z,2.50
2023-03-12T00:44:05.330Z,2.44
2023-03-12T00:46:34.681Z,2.48
2023-03-12T00:50:26.568Z,2.54
2023-03-12T00:52:55.979Z,2.53
2023-03-12T00:55:25.213Z,2.50
2023-03-12T00:57:54.576Z,2.44
2023-03-12T01:00:24.833Z,2.40
2023-03-12T01:02:54.213Z,2.42
2023-03-12T01:05:25.487Z,2.44
2023-03-12T01:07:54.872Z,2.46
2023-03-12T01:10:24.925Z,2.42
2023-03-12T01:12:54.418Z,2.45
2023-03-12T01:15:24.243Z,2.43
2023-03-12T01:17:53.696Z,2.44
2023-03-12T01:20:23.559Z,2.43
2023-03-12T01:22:55.018Z,2.38
2023-03-12T01:25:24.376Z,2.36
2023-03-12T01:27:53.787Z,2.35
2023-03-12T01:30:24.512Z,2.36
2023-03-12T01:32:54.625Z,2.36
2023-03-12T01:35:24.091Z,2.40
2023-03-12T01:37:56.189Z,2.44
2023-03-12T01:40:29.141Z,2.41
2023-03-12T01:43:00.244Z,2.35
2023-03-12T01:46:16.015Z,2.37
2023-03-12T01:48:49.611Z,2.35
2023-03-12T01:51:21.357Z,2.39
2023-03-12T01:53:56.746Z,2.36
2023-03-12T01:56:31.987Z,2.35
2023-03-12T01:59:08.438Z,2.34
2023-03-12T02:01:38.788Z,2.32
2023-03-12T02:04:08.466Z,2.30
2023-03-12T02:06:45.164Z,2.22
2023-03-12T02:09:19.746Z,2.20
2023-03-12T02:11:49.493Z,2.22
2023-03-12T02:14:19.287Z,2.24
2023-03-12T02:16:48.883Z,2.21
2023-03-12T02:19:27.810Z,2.21
2023-03-12T02:21:57.524Z,2.19
2023-03-12T02:24:35.684Z,2.15
2023-03-12T02:27:08.889Z,2.13
2023-03-12T02:29:43.068Z,2.08
2023-03-12T02:32:23.108Z,2.06
2023-03-12T02:34:52.604Z,2.02
2023-03-12T02:37:22.749Z,2.01
2023-03-12T02:40:02.261Z,1.98
2023-03-12T02:42:33.295Z,1.93
2023-03-12T02:45:04.210Z,1.93
2023-03-12T02:47:33.550Z,1.93
2023-03-12T02:50:02.943Z,1.89
2023-03-12T02:52:35.794Z,1.87
2023-03-12T02:55:06.646Z,1.86
2023-03-12T02:57:37.915Z,1.82
2023-03-12T03:00:12.217Z,1.80
2023-03-12T03:02:42.156Z,1.79
2023-03-12T03:05:13.896Z,1.75
2023-03-12T03:07:43.346Z,1.72
2023-03-12T03:10:15.765Z,1.72
2023-03-12T03:12:46.949Z,1.73
2023-03-12T03:15:16.371Z,1.73
2023-03-12T03:17:45.697Z,1.69
2023-03-12T03:20:15.409Z,1.65
2023-03-12T03:22:44.932Z,1.63
2023-03-12T03:25:14.164Z,1.61
2023-03-12T03:27:44.912Z,1.59
2023-03-12T03:30:15.390Z,1.57
2023-03-12T03:32:44.832Z,1.57
2023-03-12T03:35:14.672Z,1.58
2023-03-12T03:37:43.943Z,1.58
2023-03-12T03:40:14.692Z,1.57
2023-03-12T03:42:45.550Z,1.52
2023-03-12T03:45:14.962Z,1.50
2023-03-12T03:47:45.114Z,1.49
2023-03-12T03:51:26.431Z,1.47
2023-03-12T03:53:55.927Z,1.49
2023-03-12T03:56:25.330Z,1.44
2023-03-12T03:58:55.056Z,1.44
2023-03-12T04:01:24.552Z,1.41
2023-03-12T04:03:53.873Z,1.40
2023-03-12T04:06:24.607Z,1.36
2023-03-12T04:08:54.058Z,1.35
2023-03-12T04:11:24.209Z,1.30
2023-03-12T04:13:53.633Z,1.31
2023-03-12T04:16:23.095Z,1.34
2023-03-12T04:18:52.604Z,1.36
2023-03-12T04:21:22.046Z,1.34
2023-03-12T04:23:52.852Z,1.36
2023-03-12T04:26:22.155Z,1.35
2023-03-12T04:28:51.558Z,1.32
2023-03-12T04:31:20.996Z,1.24
2023-03-12T04:33:50.401Z,1.22
2023-03-12T04:36:19.798Z,1.21
2023-03-12T04:38:49.270Z,1.25
2023-03-12T04:41:20.416Z,1.24
2023-03-12T04:43:49.729Z,1.24
2023-03-12T04:46:19.315Z,1.24
2023-03-12T04:48:48.767Z,1.23
2023-03-12T04:51:18.273Z,1.21
2023-03-12T04:53:47.926Z,1.18
2023-03-12T04:56:18.865Z,1.18
2023-03-12T04:58:48.312Z,1.18
2023-03-12T05:01:27.083Z,1.16
2023-03-12T05:03:57.090Z,1.18
2023-03-12T05:06:27.638Z,1.19
2023-03-12T05:08:56.958Z,1.16
2023-03-12T05:11:28.089Z,1.12
2023-03-12T05:13:57.870Z,1.16
2023-03-12T05:16:28.070Z,1.16
2023-03-12T05:18:57.452Z,1.15
2023-03-12T05:21:26.854Z,1.18
2023-03-12T05:23:56.541Z,1.20
2023-03-12T05:26:29.613Z,1.24
2023-03-12T05:28:59.248Z,1.34
2023-03-12T05:31:33.242Z,1.55
2023-03-12T05:34:02.949Z,1.75
2023-03-12T05:36:32.488Z,1.93
2023-03-12T05:39:01.957Z,2.16
2023-03-12T05:41:33.101Z,2.44
2023-03-12T05:44:02.556Z,2.59
2023-03-12T05:46:31.896Z,2.66
2023-03-12T05:49:01.212Z,2.59
2023-03-12T05:51:30.549Z,2.71
2023-03-12T05:54:00.083Z,2.79
2023-03-12T05:56:29.877Z,2.88
2023-03-12T05:59:00.741Z,2.88
2023-03-12T06:01:31.543Z,3.09
2023-03-12T06:04:00.928Z,3.33
2023-03-12T06:06:32.897Z,3.36
2023-03-12T06:09:02.398Z,3.37
2023-03-12T06:11:32.423Z,3.30
2023-03-12T06:14:03.333Z,3.23
2023-03-12T06:16:33.130Z,3.11
2023-03-12T06:19:05.597Z,3.03
2023-03-12T06:21:36.841Z,3.04
2023-03-12T06:24:07.233Z,3.07
2023-03-12T06:26:36.550Z,3.09
2023-03-12T06:29:07.311Z,3.18
2023-03-12T06:31:38.869Z,3.23
2023-03-12T06:34:08.513Z,3.45
2023-03-12T06:36:38.064Z,3.72
2023-03-12T06:39:09.007Z,3.75
2023-03-12T06:41:38.569Z,3.75
2023-03-12T06:44:09.475Z,3.61
2023-03-12T06:46:39.256Z,3.75
2023-03-12T06:51:26.587Z,4.08
2023-03-12T06:53:55.993Z,4.17
2023-03-12T06:56:25.367Z,4.41
2023-03-12T06:58:54.712Z,4.60
2023-03-12T07:01:24.555Z,4.83
2023-03-12T07:03:53.990Z,5.07
2023-03-12T07:06:26.337Z,5.11
2023-03-12T07:08:55.790Z,5.06
2023-03-12T07:11:25.192Z,5.27
2023-03-12T07:13:54.629Z,5.36
2023-03-12T07:16:24.101Z,5.59
2023-03-12T07:18:53.453Z,5.49
2023-03-12T07:21:24.343Z,5.36
2023-03-12T07:23:54.497Z,5.36
2023-03-12T07:26:24.595Z,5.35
2023-03-12T07:28:53.994Z,5.35
2023-03-12T07:31:23.385Z,5.36
2023-03-12T07:33:52.911Z,5.35
2023-03-12T07:36:22.517Z,5.47
2023-03-12T07:38:54.805Z,5.50
2023-03-12T07:41:24.399Z,5.72
2023-03-12T07:43:53.835Z,5.89
2023-03-12T07:46:23.329Z,5.97
2023-03-12T07:48:53.113Z,6.18
2023-03-12T07:51:22.496Z,6.19
2023-03-12T07:53:53.416Z,6.10
2023-03-12T07:56:23.857Z,6.07
2023-03-12T07:58:53.577Z,6.09
2023-03-12T08:01:25.587Z,5.96
2023-03-12T08:03:55.088Z,6.09
2023-03-12T08:06:24.726Z,6.14
2023-03-12T08:08:55.771Z,6.28
2023-03-12T08:11:25.150Z,6.49
2023-03-12T08:13:54.395Z,6.67
2023-03-12T08:16:23.784Z,6.73
2023-03-12T08:18:53.155Z,6.76
2023-03-12T08:21:22.714Z,6.93
2023-03-12T08:23:53.750Z,7.12
2023-03-12T08:26:23.143Z,7.02
2023-03-12T08:28:52.367Z,7.01
2023-03-12T08:31:21.687Z,7.07
2023-03-12T08:33:50.980Z,6.99
2023-03-12T08:36:22.393Z,7.22
2023-03-12T08:38:53.430Z,7.08
2023-03-12T08:41:23.105Z,7.28
2023-03-12T08:43:52.574Z,7.57
2023-03-12T08:46:22.054Z,7.66
2023-03-12T08:48:51.609Z,7.80
2023-03-12T08:51:20.936Z,7.74
2023-03-12T08:53:50.338Z,7.86
2023-03-12T08:56:21.111Z,7.86
2023-03-12T08:58:50.514Z,7.96
2023-03-12T09:01:19.792Z,8.09
2023-03-12T09:03:51.233Z,8.14
2023-03-12T09:06:20.966Z,8.16
2023-03-12T09:08:51.832Z,8.22
2023-03-12T09:11:22.682Z,8.46
2023-03-12T09:14:24.654Z,8.52
2023-03-12T09:16:41.637Z,8.22
2023-03-12T09:19:11.100Z,8.29
2023-03-12T09:21:41.380Z,8.45
2023-03-12T09:24:11.452Z,8.30
2023-03-12T09:26:42.531Z,8.26
2023-03-12T09:29:11.933Z,8.42
2023-03-12T09:31:41.254Z,8.46
2023-03-12T09:34:10.687Z,8.47
2023-03-12T09:36:40.076Z,8.64
2023-03-12T09:39:09.515Z,8.88
2023-03-12T09:41:44.008Z,8.99
2023-03-12T09:44:22.305Z,9.10
2023-03-12T09:46:56.266Z,9.16
2023-03-12T09:51:33.455Z,9.17
2023-03-12T09:54:06.540Z,9.04
2023-03-12T09:56:37.218Z,8.80
2023-03-12T09:59:06.767Z,8.75
2023-03-12T10:01:42.569Z,8.48
2023-03-12T10:04:56.272Z,8.28
2023-03-12T10:07:36.224Z,8.73
2023-03-12T10:10:32.552Z,8.85
2023-03-12T10:13:23.371Z,8.83
2023-03-12T10:16:12.603Z,8.83
2023-03-12T10:19:00.710Z,8.58
2023-03-12T10:21:37.854Z,8.74
2023-03-12T10:24:25.457Z,8.80
2023-03-12T10:26:58.890Z,8.85
2023-03-12T10:29:31.867Z,8.88
2023-03-12T10:32:06.226Z,8.86
2023-03-12T10:34:41.662Z,8.41
2023-03-12T10:37:19.727Z,8.44
2023-03-12T10:39:51.127Z,8.53
2023-03-12T10:42:23.376Z,8.53
2023-03-12T10:44:57.971Z,8.54
2023-03-12T10:47:38.695Z,8.64
2023-03-12T10:50:19.612Z,8.85
2023-03-12T10:52:51.117Z,8.84
2023-03-12T10:55:29.658Z,8.98
2023-03-12T10:57:59.865Z,8.79
2023-03-12T11:00:32.565Z,8.68
2023-03-12T11:03:03.888Z,8.76
2023-03-12T11:05:35.908Z,8.82
2023-03-12T11:08:15.049Z,8.65
2023-03-12T11:10:49.145Z,8.77
2023-03-12T11:13:32.403Z,9.05
2023-03-12T11:16:04.125Z,9.30
2023-03-12T11:18:36.810Z,9.35
2023-03-12T11:21:22.076Z,9.46
2023-03-12T11:24:11.327Z,9.27
2023-03-12T11:26:51.673Z,9.11
2023-03-12T11:29:30.127Z,9.06
2023-03-12T11:32:08.095Z,9.12
2023-03-12T11:34:40.518Z,9.35
2023-03-12T11:37:17.613Z,9.03
2023-03-12T11:40:12.199Z,9.26
2023-03-12T11:43:02.271Z,9.05
2023-03-12T11:45:43.815Z,9.14
2023-03-12T11:48:24.552Z,9.10
2023-03-12T11:51:14.072Z,9.06
2023-03-12T11:54:08.186Z,8.95
2023-03-12T11:56:42.362Z,8.81
2023-03-12T11:59:33.220Z,9.07
2023-03-12T12:02:32.792Z,9.29
2023-03-12T12:05:29.166Z,9.63
2023-03-12T12:08:19.252Z,9.80
2023-03-12T12:11:01.864Z,10.08
2023-03-12T12:13:45.859Z,10.54
2023-03-12T12:16:39.686Z,10.99
2023-03-12T12:19:25.104Z,11.05
2023-03-12T12:22:24.482Z,10.52
2023-03-12T12:25:26.066Z,10.81
2023-03-12T12:28:14.749Z,10.32
2023-03-12T12:31:04.594Z,10.39
2023-03-12T12:34:01.332Z,10.73
2023-03-12T12:36:36.447Z,11.03
2023-03-12T12:39:10.956Z,11.17
2023-03-12T12:41:46.236Z,11.22
2023-03-12T12:44:19.334Z,11.04
2023-03-12T12:46:54.111Z,10.92
2023-03-12T12:51:34.060Z,11.33
2023-03-12T12:54:09.888Z,11.41
2023-03-12T12:56:47.667Z,11.37
2023-03-12T12:59:34.827Z,11.28
2023-03-12T13:02:13.407Z,11.23
2023-03-12T13:04:43.695Z,11.14
2023-03-12T13:07:35.669Z,10.99
2023-03-12T13:10:10.802Z,10.96
2023-03-12T13:12:51.790Z,10.94
2023-03-12T13:15:44.106Z,10.83
2023-03-12T13:18:26.610Z,10.84
2023-03-12T13:21:21.354Z,10.77
2023-03-12T13:24:06.817Z,10.47
2023-03-12T13:26:54.778Z,10.32
2023-03-12T13:29:39.146Z,10.54
2023-03-12T13:32:12.636Z,10.67
2023-03-12T13:34:47.647Z,10.63
2023-03-12T13:37:49.504Z,10.40
2023-03-12T13:41:03.677Z,10.40
2023-03-12T13:43:57.954Z,10.33
2023-03-12T13:46:47.302Z,9.91
2023-03-12T13:49:20.426Z,9.53
2023-03-12T13:52:13.395Z,9.27
2023-03-12T13:54:47.221Z,9.14
2023-03-12T13:57:32.760Z,9.14
2023-03-12T14:00:02.592Z,8.88
2023-03-12T14:02:36.230Z,8.79
2023-03-12T14:05:09.819Z,8.54
2023-03-12T14:08:07.184Z,8.67
2023-03-12T14:10:52.236Z,8.54
2023-03-12T14:13:41.527Z,8.67
2023-03-12T14:16:21.018Z,8.63
2023-03-12T14:18:53.775Z,8.32
2023-03-12T14:21:26.519Z,8.22
2023-03-12T14:23:59.355Z,8.04
2023-03-12T14:26:32.336Z,7.91
2023-03-12T14:29:08.125Z,7.83
2023-03-12T14:31:39.222Z,7.77
2023-03-12T14:34:16.813Z,7.73
2023-03-12T14:36:52.093Z,7.73
2023-03-12T14:39:30.593Z,7.65
2023-03-12T14:42:05.122Z,7.64
2023-03-12T14:44:38.016Z,7.56
2023-03-12T14:47:10.503Z,7.32
2023-03-12T14:49:44.874Z,7.21
2023-03-12T14:52:15.245Z,7.06
2023-03-12T14:54:58.153Z,7.06
2023-03-12T14:57:27.453Z,7.13
2023-03-12T15:00:00.404Z,7.13
2023-03-12T15:02:33.094Z,7.07
2023-03-12T15:05:04.702Z,7.02
2023-03-12T15:07:39.773Z,7.07
2023-03-12T15:10:20.855Z,7.04
2023-03-12T15:12:50.636Z,7.03
2023-03-12T15:15:37.479Z,7.02
2023-03-12T15:18:10.230Z,6.99
2023-03-12T15:20:39.754Z,6.64
2023-03-12T15:23:11.718Z,6.56
2023-03-12T15:25:41.849Z,6.50
2023-03-12T15:28:29.862Z,6.58
2023-03-12T15:31:17.000Z,6.50
2023-03-12T15:33:47.209Z,6.40
2023-03-12T15:36:35.274Z,6.58
2023-03-12T15:39:26.709Z,6.52
2023-03-12T15:41:57.158Z,6.50
2023-03-12T15:44:28.978Z,6.49
2023-03-12T15:47:08.145Z,6.49
2023-03-12T15:51:36.239Z,6.40
2023-03-12T15:54:22.024Z,6.36
2023-03-12T15:56:51.580Z,6.23
2023-03-12T15:59:28.294Z,6.13
2023-03-12T16:01:58.919Z,6.06
2023-03-12T16:04:28.352Z,6.09
2023-03-12T16:07:00.831Z,6.04
2023-03-12T16:09:35.173Z,5.87
2023-03-12T16:12:05.174Z,5.75
2023-03-12T16:14:37.341Z,5.64
2023-03-12T16:17:07.521Z,5.64
2023-03-12T16:19:37.003Z,5.60
2023-03-12T16:22:07.994Z,5.41
2023-03-12T16:24:37.317Z,5.22
2023-03-12T16:27:07.384Z,5.13
2023-03-12T16:29:39.701Z,4.94
2023-03-12T16:32:15.056Z,5.04
2023-03-12T16:34:45.032Z,5.19
2023-03-12T16:37:16.340Z,5.28
2023-03-12T16:39:46.675Z,5.27
2023-03-12T16:42:19.202Z,5.20
2023-03-12T16:44:49.393Z,5.03
2023-03-12T16:47:18.748Z,4.87
2023-03-12T16:49:48.148Z,4.73
2023-03-12T16:52:21.819Z,4.69
2023-03-12T16:54:52.380Z,4.66
2023-03-12T16:57:28.531Z,4.66
2023-03-12T16:59:57.988Z,4.55
2023-03-12T17:02:28.628Z,4.38
2023-03-12T17:04:58.042Z,4.34
2023-03-12T17:07:29.466Z,4.26
2023-03-12T17:09:58.869Z,4.25
2023-03-12T17:12:33.011Z,4.20
2023-03-12T17:15:05.097Z,4.14
2023-03-12T17:17:34.411Z,4.03
2023-03-12T17:20:08.112Z,3.91
2023-03-12T17:22:39.332Z,3.63
2023-03-12T17:25:12.617Z,3.57
2023-03-12T17:27:41.815Z,3.61
2023-03-12T17:30:13.651Z,3.53
2023-03-12T17:32:43.057Z,3.54
2023-03-12T17:35:12.961Z,3.44
2023-03-12T17:37:43.635Z,3.39
2023-03-12T17:40:14.690Z,3.45
2023-03-12T17:42:44.147Z,3.45
2023-03-12T17:45:13.846Z,3.36
2023-03-12T17:47:43.275Z,3.30
2023-03-12T17:50:14.427Z,3.21
2023-03-12T17:52:45.414Z,3.22
2023-03-12T17:55:14.968Z,3.14
2023-03-12T17:57:44.907Z,3.01
2023-03-12T18:00:16.086Z,2.89
2023-03-12T18:02:45.958Z,2.83
2023-03-12T18:05:15.423Z,2.69
2023-03-12T18:07:47.405Z,2.68
2023-03-12T18:10:17.228Z,2.59
2023-03-12T18:12:46.650Z,2.51
2023-03-12T18:15:17.122Z,2.54
2023-03-12T18:17:49.850Z,2.52
2023-03-12T18:20:28.793Z,2.42
2023-03-12T18:23:03.021Z,2.56
2023-03-12T18:25:32.416Z,2.56
2023-03-12T18:28:01.705Z,2.44
2023-03-12T18:30:31.179Z,2.30
2023-03-12T18:33:01.109Z,2.34
2023-03-12T18:35:30.669Z,2.36
2023-03-12T18:38:02.013Z,2.41
2023-03-12T18:40:33.233Z,2.35
2023-03-12T18:43:03.348Z,2.26
2023-03-12T18:45:33.001Z,2.23
2023-03-12T18:51:25.841Z,2.22
2023-03-12T18:53:55.092Z,2.28
2023-03-12T18:56:28.113Z,2.49
2023-03-12T18:58:57.605Z,2.61
2023-03-12T19:01:27.045Z,2.67
2023-03-12T19:03:56.417Z,2.65
2023-03-12T19:06:28.373Z,2.67
2023-03-12T19:08:58.928Z,2.60
2023-03-12T19:11:28.273Z,2.60
2023-03-12T19:13:57.690Z,2.57
2023-03-12T19:16:27.779Z,2.56
2023-03-12T19:18:57.241Z,2.53
2023-03-12T19:21:28.145Z,2.59
2023-03-12T19:23:58.193Z,2.62
2023-03-12T19:26:27.601Z,2.64
2023-03-12T19:28:56.948Z,2.71
2023-03-12T19:31:26.646Z,2.71
2023-03-12T19:33:56.070Z,2.67
2023-03-12T19:36:26.892Z,2.64
2023-03-12T19:38:56.199Z,2.59
2023-03-12T19:41:25.714Z,2.57
2023-03-12T19:43:54.961Z,2.65
2023-03-12T19:46:24.270Z,2.56
2023-03-12T19:48:53.634Z,2.48
2023-03-12T19:51:22.944Z,2.55
2023-03-12T19:53:53.612Z,2.58
2023-03-12T19:56:22.992Z,2.51
2023-03-12T19:58:53.444Z,2.52
2023-03-12T20:01:23.219Z,2.50
2023-03-12T20:03:52.614Z,2.47
2023-03-12T20:06:22.076Z,2.36
2023-03-12T20:08:52.843Z,2.37
2023-03-12T20:11:22.197Z,2.33
2023-03-12T20:13:51.548Z,2.14
2023-03-12T20:16:21.020Z,2.14
2023-03-12T20:18:50.388Z,2.27
2023-03-12T20:21:19.784Z,2.37
2023-03-12T20:23:49.029Z,2.38
2023-03-12T20:26:19.888Z,2.19
2023-03-12T20:28:49.845Z,2.20
2023-03-12T20:31:19.895Z,2.18
2023-03-12T20:33:49.365Z,2.11
2023-03-12T20:36:18.722Z,1.97
2023-03-12T20:38:50.844Z,1.88
2023-03-12T20:41:21.641Z,1.87
2023-03-12T20:43:50.877Z,1.80
2023-03-12T20:46:20.542Z,1.82
2023-03-12T20:48:49.967Z,1.84
2023-03-12T20:51:19.427Z,1.84
2023-03-12T20:53:48.689Z,1.88
2023-03-12T20:56:18.076Z,1.85
2023-03-12T20:58:50.009Z,1.79
2023-03-12T21:01:19.472Z,1.88
2023-03-12T21:03:48.947Z,1.85
2023-03-12T21:06:18.417Z,1.85
2023-03-12T21:08:47.758Z,1.88
2023-03-12T21:11:17.026Z,1.88
2023-03-12T21:13:46.249Z,1.91
2023-03-12T21:16:17.150Z,1.94
2023-03-12T21:18:46.518Z,1.97
2023-03-12T21:21:16.020Z,1.96
2023-03-12T21:23:45.725Z,2.05
2023-03-12T21:26:15.032Z,2.12
2023-03-12T21:28:44.395Z,2.17
2023-03-12T21:31:19.072Z,2.18
2023-03-12T21:33:49.519Z,2.23
2023-03-12T21:36:18.945Z,2.19
2023-03-12T21:38:48.455Z,2.11
2023-03-12T21:41:19.808Z,1.96
2023-03-12T21:43:49.975Z,1.84
2023-03-12T21:46:24.899Z,1.83
2023-03-12T21:51:26.315Z,1.84
2023-03-12T21:53:56.654Z,1.79
2023-03-12T21:56:28.341Z,1.69
2023-03-12T21:58:59.306Z,1.62
2023-03-12T22:01:28.971Z,1.52
2023-03-12T22:04:01.314Z,1.47
2023-03-12T22:06:32.063Z,1.44
2023-03-12T22:09:01.490Z,1.37
2023-03-12T22:11:30.753Z,1.30
2023-03-12T22:14:00.140Z,1.17
2023-03-12T22:16:29.665Z,1.11
2023-03-12T22:18:59.452Z,1.18
2023-03-12T22:21:30.720Z,1.21
2023-03-12T22:24:01.784Z,1.27
2023-03-12T22:26:31.649Z,1.28
2023-03-12T22:29:02.571Z,1.28
2023-03-12T22:31:32.809Z,1.19
2023-03-12T22:34:02.470Z,1.20
2023-03-12T22:36:33.713Z,1.25
2023-03-12T22:39:03.179Z,1.14
2023-03-12T22:41:32.650Z,1.03
2023-03-12T22:44:06.344Z,1.06
2023-03-12T22:46:36.463Z,1.06
2023-03-12T22:49:06.640Z,1.00
2023-03-12T22:51:37.467Z,0.98
2023-03-12T22:54:07.149Z,1.02
2023-03-12T22:56:36.874Z,1.11
2023-03-12T22:59:06.270Z,1.21
2023-03-12T23:01:35.686Z,1.23
2023-03-12T23:04:06.538Z,1.21
2023-03-12T23:06:37.388Z,1.27
2023-03-12T23:09:06.688Z,1.23
2023-03-12T23:11:36.110Z,1.14
2023-03-12T23:14:05.371Z,1.08
2023-03-12T23:16:34.749Z,1.05
2023-03-12T23:19:04.166Z,0.97
2023-03-12T23:21:33.400Z,0.96
2023-03-12T23:24:04.244Z,0.99
2023-03-12T23:26:34.044Z,1.01
2023-03-12T23:29:03.870Z,1.00
2023-03-12T23:31:33.326Z,1.04
2023-03-12T23:34:02.625Z,1.06
2023-03-12T23:36:32.210Z,1.19
2023-03-12T23:39:03.728Z,1.30
2023-03-12T23:41:33.148Z,1.36
2023-03-12T23:44:03.203Z,1.40
2023-03-12T23:46:32.967Z,1.42
2023-03-12T23:49:02.348Z,1.42
2023-03-12T23:51:33.572Z,1.36
2023-03-12T23:54:06.155Z,1.25
2023-03-12T23:56:38.186Z,1.17
2023-03-12T23:59:10.161Z,1.12
